createdAt,value
2023-01-05T00:01:15.236Z,18.13
2023-01-05T00:06:16.314Z,16.58
2023-01-05T00:11:34.995Z,15.15
2023-01-05T00:16:46.879Z,17.00
2023-01-05T00:21:58.850Z,16.75
2023-01-05T00:26:51.477Z,16.38
2023-01-05T00:31:45.405Z,15.68
2023-01-05T00:36:40.195Z,14.65
2023-01-05T00:41:33.478Z,15.13
2023-01-05T00:46:28.684Z,15.48
2023-01-05T00:51:22.627Z,16.33
2023-01-05T00:56:16.869Z,14.95
2023-01-05T01:01:32.181Z,15.52
2023-01-05T01:06:25.375Z,15.10
2023-01-05T01:11:18.769Z,14.98
2023-01-05T01:16:15.767Z,14.15
2023-01-05T01:21:09.884Z,14.13
2023-01-05T01:26:07.285Z,13.00
2023-01-05T01:31:00.652Z,12.82
2023-01-05T01:35:54.503Z,13.95
2023-01-05T01:40:48.878Z,12.15
2023-01-05T01:45:41.751Z,13.43
2023-01-05T01:50:37.904Z,12.95
2023-01-05T01:55:32.723Z,12.73
2023-01-05T02:00:27.176Z,11.93
2023-01-05T02:05:27.767Z,11.63
2023-01-05T02:10:30.932Z,12.65
2023-01-05T02:15:53.493Z,14.15
2023-01-05T02:21:03.580Z,14.82
2023-01-05T02:26:29.838Z,13.88
2023-01-05T02:31:30.957Z,14.13
2023-01-05T02:36:54.691Z,14.73
2023-01-05T02:41:55.112Z,14.45
2023-01-05T02:47:03.169Z,14.45
2023-01-05T02:51:58.089Z,14.50
2023-01-05T02:57:00.273Z,13.27
2023-01-05T03:02:14.258Z,12.70
2023-01-05T03:07:14.307Z,11.95
2023-01-05T03:12:42.950Z,11.57
2023-01-05T03:18:17.576Z,11.52
2023-01-05T03:23:34.924Z,11.25
2023-01-05T03:28:49.536Z,11.38
2023-01-05T03:34:09.680Z,12.68
2023-01-05T03:39:05.674Z,13.23
2023-01-05T03:44:01.302Z,13.25
2023-01-05T03:48:58.107Z,14.40
2023-01-05T03:53:53.247Z,15.30
2023-01-05T03:58:46.674Z,18.35
2023-01-05T04:03:41.315Z,16.48
2023-01-05T04:08:36.017Z,16.83
2023-01-05T04:13:30.184Z,17.23
2023-01-05T04:18:23.740Z,16.00
2023-01-05T04:23:18.812Z,18.27
2023-01-05T04:28:12.620Z,18.23
2023-01-05T04:33:06.067Z,18.30
2023-01-05T04:38:00.703Z,17.58
2023-01-05T04:42:54.497Z,16.88
2023-01-05T04:47:48.728Z,15.63
2023-01-05T04:52:45.624Z,12.05
2023-01-05T04:57:39.458Z,13.93
2023-01-05T05:02:35.295Z,12.55
2023-01-05T05:07:29.928Z,13.32
2023-01-05T05:12:25.770Z,13.25
2023-01-05T05:17:19.265Z,12.25
2023-01-05T05:22:15.018Z,14.07
2023-01-05T05:27:09.324Z,13.52
2023-01-05T05:32:02.830Z,12.73
2023-01-05T05:36:56.491Z,12.57
2023-01-05T05:41:50.388Z,12.35
2023-01-05T05:46:44.136Z,11.38
2023-01-05T05:51:36.839Z,11.57
2023-01-05T05:56:30.938Z,10.43
2023-01-05T06:01:25.057Z,12.38
2023-01-05T06:06:18.456Z,13.18
2023-01-05T06:11:12.495Z,12.40
2023-01-05T06:16:06.985Z,11.95
2023-01-05T06:21:01.969Z,10.88
2023-01-05T06:25:56.168Z,10.98
2023-01-05T06:30:49.694Z,12.65
2023-01-05T06:35:42.717Z,12.93
2023-01-05T06:40:36.610Z,13.38
2023-01-05T06:45:30.293Z,12.13
2023-01-05T06:50:24.651Z,13.00
2023-01-05T06:55:19.356Z,12.60
2023-01-05T07:00:13.740Z,13.77
2023-01-05T07:05:09.288Z,15.30
2023-01-05T07:10:03.559Z,11.35
2023-01-05T07:14:58.109Z,11.93
2023-01-05T07:19:50.833Z,13.32
2023-01-05T07:24:44.341Z,13.25
2023-01-05T07:29:37.673Z,12.70
2023-01-05T07:34:31.132Z,13.93
2023-01-05T07:39:24.154Z,13.45
2023-01-05T07:44:18.498Z,12.05
2023-01-05T07:49:12.640Z,12.20
2023-01-05T07:54:06.711Z,14.20
2023-01-05T07:59:00.771Z,13.82
2023-01-05T08:03:55.013Z,12.98
2023-01-05T08:08:48.915Z,12.75
2023-01-05T08:14:00.429Z,13.90
2023-01-05T08:18:54.351Z,11.98
2023-01-05T08:23:48.844Z,12.95
2023-01-05T08:28:42.934Z,14.05
2023-01-05T08:33:36.202Z,12.60
2023-01-05T08:38:29.340Z,13.23
2023-01-05T08:43:23.310Z,12.68
2023-01-05T08:48:17.466Z,10.43
2023-01-05T08:53:11.343Z,10.10
2023-01-05T08:58:07.085Z,12.05
2023-01-05T09:03:02.241Z,15.25
2023-01-05T09:07:56.831Z,10.95
2023-01-05T09:12:50.318Z,8.85
2023-01-05T09:17:44.701Z,47.53
2023-01-05T09:22:38.958Z,20.67
2023-01-05T09:27:33.129Z,10.55
2023-01-05T09:32:27.377Z,9.10
2023-01-05T09:37:20.091Z,9.10
2023-01-05T09:42:17.449Z,10.07
2023-01-05T09:47:39.506Z,10.00
2023-01-05T09:52:38.276Z,10.48
2023-01-05T09:57:36.260Z,9.87
2023-01-05T10:02:35.051Z,10.35
2023-01-05T10:07:32.918Z,8.30
2023-01-05T10:12:50.988Z,8.10
2023-01-05T10:17:44.868Z,9.50
2023-01-05T10:22:45.083Z,10.07
2023-01-05T10:28:01.827Z,9.57
2023-01-05T10:33:39.376Z,9.68
2023-01-05T10:38:35.454Z,9.07
2023-01-05T10:43:49.479Z,8.13
2023-01-05T10:48:42.449Z,8.88
2023-01-05T10:53:38.453Z,9.68
2023-01-05T10:58:36.315Z,8.98
2023-01-05T11:04:25.558Z,8.85
2023-01-05T11:08:57.838Z,7.25
2023-01-05T11:13:58.979Z,7.13
2023-01-05T11:18:56.201Z,6.95
2023-01-05T11:24:24.478Z,7.00
2023-01-05T11:29:18.992Z,7.97
2023-01-05T11:34:17.930Z,8.93
2023-01-05T11:39:42.951Z,8.30
2023-01-05T11:44:37.228Z,10.07
2023-01-05T11:49:31.291Z,9.48
2023-01-05T11:54:36.400Z,10.45
2023-01-05T11:59:30.571Z,9.75
2023-01-05T12:04:56.639Z,11.20
2023-01-05T12:09:59.199Z,9.52
2023-01-05T12:15:11.088Z,11.90
2023-01-05T12:20:07.550Z,13.07
2023-01-05T12:25:16.275Z,14.02
2023-01-05T12:35:49.617Z,15.00
2023-01-05T12:41:00.101Z,13.95
2023-01-05T12:46:02.600Z,14.82
2023-01-05T12:51:11.580Z,17.02
2023-01-05T12:56:42.649Z,17.37
2023-01-05T13:01:42.448Z,17.77
2023-01-05T13:06:40.669Z,18.92
2023-01-05T13:11:37.841Z,18.67
2023-01-05T13:16:44.284Z,19.10
2023-01-05T13:21:37.176Z,21.60
2023-01-05T13:26:37.746Z,20.13
2023-01-05T13:32:08.385Z,21.02
2023-01-05T13:37:25.946Z,20.52
2023-01-05T13:42:37.360Z,20.20
2023-01-05T13:47:45.218Z,21.13
2023-01-05T13:53:09.341Z,23.75
2023-01-05T13:58:03.758Z,20.27
2023-01-05T14:03:15.154Z,21.38
2023-01-05T14:08:32.922Z,21.42
2023-01-05T14:13:44.641Z,20.85
2023-01-05T14:18:54.222Z,21.77
2023-01-05T14:23:47.593Z,21.55
2023-01-05T14:28:43.429Z,23.02
2023-01-05T14:33:47.033Z,23.63
2023-01-05T14:38:48.746Z,23.45
2023-01-05T14:43:42.734Z,22.58
2023-01-05T14:48:35.542Z,23.38
2023-01-05T14:53:38.456Z,23.10
2023-01-05T14:58:37.547Z,22.45
2023-01-05T15:03:40.834Z,25.65
2023-01-05T15:08:51.663Z,22.15
2023-01-05T15:14:13.044Z,23.45
2023-01-05T15:19:20.528Z,23.88
2023-01-05T15:24:48.882Z,24.25
2023-01-05T15:29:47.932Z,24.38
2023-01-05T15:34:47.246Z,22.38
2023-01-05T15:39:48.831Z,22.10
2023-01-05T15:44:47.928Z,22.27
2023-01-05T15:49:47.564Z,24.38
2023-01-05T15:59:41.251Z,25.10
2023-01-05T16:04:35.281Z,25.38
2023-01-05T16:09:36.227Z,25.20
2023-01-05T16:14:39.761Z,25.75
2023-01-05T16:19:35.676Z,25.73
2023-01-05T16:24:53.768Z,23.77
2023-01-05T16:29:48.368Z,26.40
2023-01-05T16:34:42.383Z,23.75
2023-01-05T16:39:40.747Z,23.08
2023-01-05T16:44:36.710Z,23.93
2023-01-05T16:49:43.642Z,23.98
2023-01-05T16:54:44.771Z,20.80
2023-01-05T16:59:42.798Z,22.88
2023-01-05T17:04:36.471Z,29.50
2023-01-05T17:09:31.323Z,36.90
2023-01-05T17:14:25.550Z,34.28
2023-01-05T17:19:22.250Z,39.58
2023-01-05T17:24:15.747Z,51.33
2023-01-05T17:29:15.780Z,48.33
2023-01-05T17:34:09.113Z,36.92
2023-01-05T17:39:03.418Z,38.83
2023-01-05T17:43:57.027Z,30.67
2023-01-05T17:48:50.345Z,30.75
2023-01-05T17:53:43.866Z,29.83
2023-01-05T17:58:37.527Z,30.17
2023-01-05T18:03:31.524Z,28.35
2023-01-05T18:08:25.755Z,28.95
2023-01-05T18:13:22.465Z,28.38
2023-01-05T18:18:18.786Z,28.10
2023-01-05T18:23:13.135Z,31.38
2023-01-05T18:28:07.114Z,42.92
2023-01-05T18:33:01.137Z,38.75
2023-01-05T18:42:49.270Z,35.97
2023-01-05T18:47:42.254Z,33.13
2023-01-05T18:52:35.477Z,37.47
2023-01-05T18:57:29.879Z,35.15
2023-01-05T19:02:23.083Z,35.35
2023-01-05T19:07:17.287Z,40.67
2023-01-05T19:12:11.846Z,38.35
2023-01-05T19:17:05.653Z,33.78
2023-01-05T19:21:59.890Z,38.40
2023-01-05T19:26:53.692Z,37.88
2023-01-05T19:31:49.805Z,36.72
2023-01-05T19:36:43.329Z,36.90
2023-01-05T19:41:37.591Z,38.47
2023-01-05T19:46:32.252Z,38.83
2023-01-05T19:51:27.593Z,39.25
2023-01-05T19:56:21.023Z,38.38
2023-01-05T20:01:17.638Z,35.88
2023-01-05T20:06:34.926Z,33.03
2023-01-05T20:11:36.365Z,32.58
2023-01-05T20:16:30.597Z,37.75
2023-01-05T20:21:23.701Z,38.08
2023-01-05T20:26:19.657Z,35.50
2023-01-05T20:31:26.206Z,37.13
2023-01-05T20:36:19.408Z,33.72
2023-01-05T20:41:17.034Z,35.95
2023-01-05T20:46:10.522Z,35.92
2023-01-05T20:51:05.301Z,31.77
2023-01-05T20:55:59.141Z,33.70
2023-01-05T21:01:10.968Z,33.08
2023-01-05T21:06:10.075Z,28.45
2023-01-05T21:11:04.012Z,30.00
2023-01-05T21:16:01.732Z,32.83
2023-01-05T21:20:55.716Z,31.13
2023-01-05T21:26:06.292Z,33.55
2023-01-05T21:31:07.902Z,28.83
2023-01-05T21:36:01.311Z,27.88
2023-01-05T21:41:42.505Z,29.13
2023-01-05T21:46:36.919Z,30.95
2023-01-05T21:51:48.846Z,34.03
2023-01-05T21:56:45.058Z,33.88
2023-01-05T22:01:39.539Z,33.17
2023-01-05T22:06:33.749Z,34.20
2023-01-05T22:11:27.417Z,39.40
2023-01-05T22:16:21.206Z,41.22
2023-01-05T22:21:15.413Z,49.70
2023-01-05T22:26:11.299Z,48.72
2023-01-05T22:31:09.400Z,49.30
2023-01-05T22:36:03.268Z,57.93
2023-01-05T22:40:58.791Z,55.60
2023-01-05T22:45:52.046Z,53.83
2023-01-05T22:50:46.656Z,48.65
2023-01-05T22:55:43.787Z,51.22
2023-01-05T23:00:37.709Z,48.05
2023-01-05T23:05:31.509Z,45.25
2023-01-05T23:10:28.362Z,41.03
2023-01-05T23:15:21.320Z,37.92
2023-01-05T23:20:15.884Z,43.42
2023-01-05T23:25:12.050Z,37.63
2023-01-05T23:30:08.792Z,36.13
2023-01-05T23:35:01.786Z,40.20
2023-01-05T23:39:55.621Z,38.30
2023-01-05T23:44:49.289Z,39.35
2023-01-05T23:49:46.763Z,39.45
2023-01-05T23:54:41.200Z,40.33
2023-01-05T23:59:34.633Z,43.55
